Time;durP1;ratioP1;P1;durP2;ratioP2;P2;SDS_P1;SDS_P2;PMS_P1;PMS_P2;Temp;Humidity;BMP_temperature;BMP_pressure;BME280_temperature;BME280_humidity;BME280_pressure;Samples;Min_cycle;Max_cycle;Signal;HPM_P1;HPM_P2
2021/08/31 00:01:19;;;;;;;7.70;6.70;;;;;;;;;;5015402;28;20213;-83
2021/08/31 00:03:46;;;;;;;7.70;7.00;;;;;;;;;;5003087;28;20296;-83
2021/08/31 00:06:12;;;;;;;6.83;6.10;;;;;;;;;;5029961;28;20209;-83
2021/08/31 00:08:38;;;;;;;7.10;6.40;;;;;;;;;;5015231;28;20186;-83
2021/08/31 00:11:04;;;;;;;7.67;6.97;;;;;;;;;;5017913;28;20182;-83
2021/08/31 00:13:30;;;;;;;7.47;6.77;;;;;;;;;;5019728;28;20272;-83
2021/08/31 00:15:57;;;;;;;8.53;6.63;;;;;;;;;;5036082;28;21179;-83
2021/08/31 00:18:23;;;;;;;7.37;6.67;;;;;;;;;;5022047;28;20268;-83
2021/08/31 00:20:49;;;;;;;7.00;6.30;;;;;;;;;;5018390;28;20265;-83
2021/08/31 00:23:15;;;;;;;7.67;6.87;;;;;;;;;;5019230;28;20209;-83
2021/08/31 00:25:44;;;;;;;7.13;6.43;;;;;;;;;;5019296;28;20212;-83
2021/08/31 00:28:10;;;;;;;7.97;6.47;;;;;;;;;;5031243;28;20265;-84
2021/08/31 00:30:36;;;;;;;7.57;6.77;;;;;;;;;;5019078;28;20236;-83
2021/08/31 00:33:03;;;;;;;7.00;6.40;;;;;;;;;;5001689;28;20210;-83
2021/08/31 00:35:29;;;;;;;7.57;6.67;;;;;;;;;;5019229;28;20199;-83
2021/08/31 00:37:55;;;;;;;7.23;6.60;;;;;;;;;;5023157;28;20182;-83
2021/08/31 00:40:21;;;;;;;8.20;7.30;;;;;;;;;;5015094;28;20178;-83
2021/08/31 00:42:47;;;;;;;7.50;6.80;;;;;;;;;;5031185;28;20598;-84
2021/08/31 00:45:14;;;;;;;7.83;7.00;;;;;;;;;;5018185;28;20196;-83
2021/08/31 00:47:40;;;;;;;7.50;6.80;;;;;;;;;;5017844;28;20279;-83
2021/08/31 00:50:06;;;;;;;7.87;7.10;;;;;;;;;;5018059;28;20209;-83
2021/08/31 00:52:32;;;;;;;7.30;6.60;;;;;;;;;;5016207;28;20265;-83
2021/08/31 00:55:01;;;;;;;7.37;6.67;;;;;;;;;;5035925;28;21033;-83
2021/08/31 00:57:27;;;;;;;8.77;7.97;;;;;;;;;;5017908;28;20581;-83
2021/08/31 00:59:53;;;;;;;7.03;6.27;;;;;;;;;;5014396;28;20284;-83
2021/08/31 01:02:19;;;;;;;7.97;7.17;;;;;;;;;;5014788;28;20278;-83
2021/08/31 01:04:46;;;;;;;7.83;7.10;;;;;;;;;;5019575;28;20182;-84
2021/08/31 01:07:13;;;;;;;8.07;7.30;;;;;;;;;;5001082;28;20344;-83
2021/08/31 01:09:42;;;;;;;8.37;7.30;;;;;;;;;;5017303;28;20192;-83
2021/08/31 01:12:11;;;;;;;7.60;6.90;;;;;;;;;;5013817;28;20221;-83
2021/08/31 01:14:37;;;;;;;7.60;6.90;;;;;;;;;;5016237;28;20196;-83
2021/08/31 01:17:03;;;;;;;6.57;6.07;;;;;;;;;;5016690;28;20524;-83
2021/08/31 01:19:31;;;;;;;7.23;6.53;;;;;;;;;;5015020;28;20198;-83
2021/08/31 01:22:04;;;;;;;7.93;7.13;;;;;;;;;;5032379;28;20201;-83
2021/08/31 01:24:30;;;;;;;7.97;7.37;;;;;;;;;;5033620;28;20186;-83
2021/08/31 01:26:58;;;;;;;7.67;6.60;;;;;;;;;;5033585;28;20253;-83
2021/08/31 01:29:25;;;;;;;8.20;7.10;;;;;;;;;;5010920;28;20665;-84
2021/08/31 01:31:54;;;;;;;8.47;7.43;;;;;;;;;;5032913;28;20173;-84
2021/08/31 01:34:23;;;;;;;7.50;6.80;;;;;;;;;;5014058;28;20192;-83
2021/08/31 01:36:51;;;;;;;8.40;7.63;;;;;;;;;;5015740;28;20220;-83
2021/08/31 01:39:17;;;;;;;7.13;6.20;;;;;;;;;;5007860;28;20185;-83
2021/08/31 01:41:44;;;;;;;7.60;6.90;;;;;;;;;;5014471;28;20277;-83
2021/08/31 01:44:10;;;;;;;7.00;6.30;;;;;;;;;;5028979;28;20193;-83
2021/08/31 01:46:37;;;;;;;8.20;7.13;;;;;;;;;;5013942;28;20198;-83
2021/08/31 01:49:03;;;;;;;7.00;6.43;;;;;;;;;;5015937;28;20560;-83
2021/08/31 01:51:29;;;;;;;7.87;7.17;;;;;;;;;;5027281;28;20201;-83
2021/08/31 01:53:56;;;;;;;7.83;7.13;;;;;;;;;;5016107;28;20260;-84
2021/08/31 01:56:22;;;;;;;8.43;7.60;;;;;;;;;;5026764;28;20185;-83
2021/08/31 01:58:48;;;;;;;8.70;7.90;;;;;;;;;;5014859;28;20246;-83
2021/08/31 02:01:14;;;;;;;7.60;6.90;;;;;;;;;;5008825;28;20210;-82
2021/08/31 02:03:40;;;;;;;8.73;7.93;;;;;;;;;;5015619;28;20205;-83
2021/08/31 02:06:08;;;;;;;7.60;6.90;;;;;;;;;;5030494;28;20213;-83
2021/08/31 02:08:34;;;;;;;7.20;6.60;;;;;;;;;;5016130;28;20655;-83
2021/08/31 02:11:00;;;;;;;7.47;6.77;;;;;;;;;;5014477;28;20196;-83
2021/08/31 02:13:26;;;;;;;7.67;6.90;;;;;;;;;;5015063;28;20181;-83
2021/08/31 02:15:53;;;;;;;7.73;7.03;;;;;;;;;;5033340;28;20177;-83
2021/08/31 02:18:19;;;;;;;8.80;7.90;;;;;;;;;;5017047;28;20280;-83
2021/08/31 02:20:47;;;;;;;7.77;7.07;;;;;;;;;;5014675;28;20709;-83
2021/08/31 02:23:14;;;;;;;7.77;7.07;;;;;;;;;;5013880;28;20251;-84
2021/08/31 02:25:40;;;;;;;8.57;7.73;;;;;;;;;;5031421;28;20209;-83
2021/08/31 02:28:06;;;;;;;8.30;7.30;;;;;;;;;;5014893;28;20247;-83
2021/08/31 02:30:32;;;;;;;8.83;7.47;;;;;;;;;;5015138;28;20209;-83
2021/08/31 02:33:02;;;;;;;8.63;7.70;;;;;;;;;;5017006;28;20909;-83
2021/08/31 02:35:28;;;;;;;8.27;7.50;;;;;;;;;;5014063;28;20290;-83
2021/08/31 02:37:55;;;;;;;7.93;7.23;;;;;;;;;;5030043;28;20181;-83
2021/08/31 02:40:21;;;;;;;7.70;7.03;;;;;;;;;;5033093;28;20200;-83
2021/08/31 02:42:47;;;;;;;7.43;6.83;;;;;;;;;;5030860;28;20219;-83
2021/08/31 02:45:14;;;;;;;11.27;7.77;;;;;;;;;;5013201;28;20592;-83
2021/08/31 02:47:40;;;;;;;7.90;7.20;;;;;;;;;;5015769;28;20181;-83
2021/08/31 02:50:09;;;;;;;8.97;8.07;;;;;;;;;;5004312;28;20363;-83
2021/08/31 02:52:39;;;;;;;7.40;6.80;;;;;;;;;;5012981;28;20194;-83
2021/08/31 02:55:05;;;;;;;9.13;7.80;;;;;;;;;;5034547;28;20178;-83
2021/08/31 02:57:31;;;;;;;7.93;7.13;;;;;;;;;;5016235;28;20221;-83
2021/08/31 03:00:00;;;;;;;9.63;8.37;;;;;;;;;;5016709;28;20263;-83
2021/08/31 03:02:26;;;;;;;8.73;7.93;;;;;;;;;;5037458;28;20216;-83
2021/08/31 03:04:57;;;;;;;8.97;8.17;;;;;;;;;;5027406;28;20175;-83
2021/08/31 03:07:25;;;;;;;8.73;7.93;;;;;;;;;;5016414;28;20225;-83
2021/08/31 03:09:52;;;;;;;8.60;7.70;;;;;;;;;;5031227;28;20213;-83
2021/08/31 03:12:18;;;;;;;9.47;8.40;;;;;;;;;;5019952;28;20252;-83
2021/08/31 03:14:45;;;;;;;9.13;8.23;;;;;;;;;;5018529;28;20185;-83
2021/08/31 03:17:11;;;;;;;12.73;11.63;;;;;;;;;;5024518;28;20197;-83
2021/08/31 03:19:37;;;;;;;9.60;8.70;;;;;;;;;;5035922;28;20196;-82
2021/08/31 03:22:05;;;;;;;7.97;7.27;;;;;;;;;;5023279;28;20210;-83
2021/08/31 03:24:35;;;;;;;8.47;7.67;;;;;;;;;;5007406;28;20192;-83
2021/08/31 03:27:01;;;;;;;9.23;8.33;;;;;;;;;;5021360;28;20195;-83
2021/08/31 03:29:30;;;;;;;8.70;7.80;;;;;;;;;;5022935;28;20299;-83
2021/08/31 03:31:56;;;;;;;11.80;10.73;;;;;;;;;;5023089;28;20273;-83
2021/08/31 03:34:22;;;;;;;9.23;8.33;;;;;;;;;;5019642;28;20197;-83
2021/08/31 03:36:50;;;;;;;9.23;8.23;;;;;;;;;;5040461;28;20177;-83
2021/08/31 03:39:17;;;;;;;8.33;7.53;;;;;;;;;;5040178;28;20267;-82
2021/08/31 03:41:43;;;;;;;9.03;8.23;;;;;;;;;;5019060;28;20202;-82
2021/08/31 03:44:09;;;;;;;9.83;8.83;;;;;;;;;;5021237;28;20185;-83
2021/08/31 03:46:35;;;;;;;9.17;8.27;;;;;;;;;;5023674;28;20180;-83
2021/08/31 03:49:01;;;;;;;10.00;8.97;;;;;;;;;;5042198;28;20180;-83
2021/08/31 03:51:28;;;;;;;9.17;8.27;;;;;;;;;;5024114;28;20273;-83
2021/08/31 03:53:54;;;;;;;10.27;8.90;;;;;;;;;;5029102;28;20181;-82
2021/08/31 03:56:20;;;;;;;9.97;9.00;;;;;;;;;;5031118;28;20197;-82
2021/08/31 03:58:47;;;;;;;10.23;9.23;;;;;;;;;;5011794;28;20217;-83
2021/08/31 04:01:14;;;;;;;12.17;11.07;;;;;;;;;;5029565;28;20206;-83
2021/08/31 04:03:43;;;;;;;11.40;8.70;;;;;;;;;;5028481;28;20188;-83
2021/08/31 04:06:09;;;;;;;10.73;9.63;;;;;;;;;;5027343;28;20220;-83
2021/08/31 04:08:35;;;;;;;12.83;10.30;;;;;;;;;;5027851;28;20180;-83
2021/08/31 04:11:01;;;;;;;11.07;9.87;;;;;;;;;;5025585;28;20189;-83
2021/08/31 04:13:27;;;;;;;10.73;9.73;;;;;;;;;;5020573;28;20403;-83
2021/08/31 04:15:54;;;;;;;11.30;10.10;;;;;;;;;;5022153;28;20183;-83
2021/08/31 04:18:20;;;;;;;11.47;10.33;;;;;;;;;;5021328;28;20587;-82
2021/08/31 04:20:49;;;;;;;11.13;10.03;;;;;;;;;;5019707;28;20177;-83
2021/08/31 04:23:16;;;;;;;13.43;12.00;;;;;;;;;;5013642;28;20209;-82
2021/08/31 04:25:42;;;;;;;13.10;10.97;;;;;;;;;;5017940;28;20246;-82
2021/08/31 04:28:09;;;;;;;14.70;13.30;;;;;;;;;;5010801;28;20177;-82
2021/08/31 04:30:35;;;;;;;16.60;13.93;;;;;;;;;;5018889;28;20862;-83
2021/08/31 04:33:01;;;;;;;13.60;12.20;;;;;;;;;;5009422;28;20267;-83
2021/08/31 04:35:27;;;;;;;14.23;11.80;;;;;;;;;;5032138;28;20609;-83
2021/08/31 04:37:58;;;;;;;14.80;12.77;;;;;;;;;;5033790;28;20177;-83
2021/08/31 04:40:24;;;;;;;16.97;14.63;;;;;;;;;;5036538;28;20181;-83
2021/08/31 04:42:52;;;;;;;14.80;13.30;;;;;;;;;;5034067;28;20225;-82
2021/08/31 04:45:18;;;;;;;16.13;13.70;;;;;;;;;;5016499;28;20189;-82
2021/08/31 04:47:44;;;;;;;15.60;13.90;;;;;;;;;;5018068;28;20269;-82
2021/08/31 04:50:10;;;;;;;16.60;14.30;;;;;;;;;;5016219;28;20184;-82
2021/08/31 04:52:36;;;;;;;17.37;15.67;;;;;;;;;;5018038;28;20182;-82
2021/08/31 04:55:03;;;;;;;15.87;14.17;;;;;;;;;;5016623;28;20247;-82
2021/08/31 04:57:29;;;;;;;16.70;14.53;;;;;;;;;;5034819;28;20174;-82
2021/08/31 04:59:55;;;;;;;16.67;14.93;;;;;;;;;;5024029;28;20296;-82
2021/08/31 05:02:21;;;;;;;17.57;14.93;;;;;;;;;;5018594;28;20260;-83
2021/08/31 05:04:47;;;;;;;19.83;14.50;;;;;;;;;;5019646;28;20182;-85
2021/08/31 05:07:14;;;;;;;15.20;13.60;;;;;;;;;;5016964;28;20241;-84
2021/08/31 05:09:43;;;;;;;15.67;14.07;;;;;;;;;;5004754;28;20466;-84
2021/08/31 05:12:10;;;;;;;18.97;14.93;;;;;;;;;;5033370;28;20617;-84
2021/08/31 05:14:36;;;;;;;15.70;14.10;;;;;;;;;;5011889;28;20660;-84
2021/08/31 05:17:03;;;;;;;15.73;14.03;;;;;;;;;;5016621;28;20602;-83
2021/08/31 05:19:29;;;;;;;16.67;14.20;;;;;;;;;;5016094;28;20270;-84
2021/08/31 05:21:58;;;;;;;17.03;15.23;;;;;;;;;;5017023;28;20282;-85
2021/08/31 05:24:24;;;;;;;16.47;14.73;;;;;;;;;;5014664;28;20182;-87
2021/08/31 05:26:50;;;;;;;17.43;15.03;;;;;;;;;;5015214;28;20198;-87
2021/08/31 05:29:16;;;;;;;16.77;15.00;;;;;;;;;;5014885;28;20177;-87
2021/08/31 05:31:45;;;;;;;20.43;16.17;;;;;;;;;;5031571;28;20577;-87
2021/08/31 05:34:11;;;;;;;17.53;15.50;;;;;;;;;;5015468;28;20217;-87
2021/08/31 05:36:37;;;;;;;17.43;15.33;;;;;;;;;;5014466;28;20795;-87
2021/08/31 05:39:06;;;;;;;19.63;16.17;;;;;;;;;;5015385;28;20659;-85
2021/08/31 05:41:32;;;;;;;40.87;25.03;;;;;;;;;;5014186;28;20232;-85
2021/08/31 05:44:00;;;;;;;38.83;30.60;;;;;;;;;;5012611;28;20651;-86
2021/08/31 05:46:26;;;;;;;39.70;30.93;;;;;;;;;;5013761;28;20177;-86
2021/08/31 05:48:52;;;;;;;40.90;32.83;;;;;;;;;;5016063;28;20564;-85
2021/08/31 05:51:18;;;;;;;39.70;29.93;;;;;;;;;;5033178;28;20257;-85
2021/08/31 05:53:45;;;;;;;39.23;30.40;;;;;;;;;;5032156;28;20184;-85
2021/08/31 05:56:11;;;;;;;41.23;30.67;;;;;;;;;;5017135;28;20169;-85
2021/08/31 05:58:37;;;;;;;41.30;31.60;;;;;;;;;;5015341;28;20517;-85
2021/08/31 06:01:04;;;;;;;47.27;33.97;;;;;;;;;;5014709;28;20224;-86
2021/08/31 06:03:30;;;;;;;43.07;34.37;;;;;;;;;;5016956;28;20188;-86
2021/08/31 06:05:57;;;;;;;49.30;36.47;;;;;;;;;;5036171;28;20177;-85
2021/08/31 06:08:23;;;;;;;51.50;39.13;;;;;;;;;;5008799;28;20189;-86
2021/08/31 06:10:49;;;;;;;56.00;39.23;;;;;;;;;;5017680;28;20300;-86
2021/08/31 06:13:15;;;;;;;50.90;35.90;;;;;;;;;;5034813;28;20269;-85
2021/08/31 06:15:41;;;;;;;43.33;34.77;;;;;;;;;;5015283;28;20189;-85
2021/08/31 06:18:07;;;;;;;47.07;35.30;;;;;;;;;;5015437;28;20667;-85
2021/08/31 06:20:33;;;;;;;50.80;35.63;;;;;;;;;;5016458;28;20259;-85
2021/08/31 06:22:59;;;;;;;47.77;34.43;;;;;;;;;;5015900;28;20239;-86
2021/08/31 06:25:28;;;;;;;42.93;34.87;;;;;;;;;;5015825;28;20231;-86
2021/08/31 06:27:54;;;;;;;47.67;34.43;;;;;;;;;;5015814;28;20178;-85
2021/08/31 06:30:21;;;;;;;44.07;33.70;;;;;;;;;;5014555;28;20182;-84
2021/08/31 06:32:47;;;;;;;49.17;35.13;;;;;;;;;;5014199;28;20780;-86
2021/08/31 06:35:13;;;;;;;44.30;32.97;;;;;;;;;;5013009;28;20173;-86
2021/08/31 06:37:40;;;;;;;46.70;33.67;;;;;;;;;;5013951;28;20752;-86
2021/08/31 06:40:06;;;;;;;42.53;33.40;;;;;;;;;;5018828;28;20261;-86
2021/08/31 06:42:32;;;;;;;45.33;34.47;;;;;;;;;;5031970;28;20228;-86
2021/08/31 06:44:58;;;;;;;42.03;32.57;;;;;;;;;;5014501;28;20170;-85
2021/08/31 06:47:24;;;;;;;44.27;32.63;;;;;;;;;;5031869;28;20229;-85
2021/08/31 06:49:50;;;;;;;47.13;35.07;;;;;;;;;;5014061;28;20269;-85
2021/08/31 06:52:17;;;;;;;44.70;34.80;;;;;;;;;;5015563;28;20706;-84
2021/08/31 06:54:43;;;;;;;51.43;36.80;;;;;;;;;;5017863;28;20182;-85
2021/08/31 06:57:10;;;;;;;52.40;36.70;;;;;;;;;;5018219;28;20175;-85
2021/08/31 06:59:36;;;;;;;46.70;33.93;;;;;;;;;;5017835;28;20317;-85
2021/08/31 07:02:02;;;;;;;49.43;34.97;;;;;;;;;;5018214;28;20206;-85
2021/08/31 07:04:28;;;;;;;53.40;35.50;;;;;;;;;;5018074;28;20194;-85
2021/08/31 07:06:54;;;;;;;46.97;34.73;;;;;;;;;;5036187;28;20271;-85
2021/08/31 07:09:20;;;;;;;47.73;34.87;;;;;;;;;;5035671;28;20376;-84
2021/08/31 07:11:46;;;;;;;46.53;35.87;;;;;;;;;;5015213;28;20613;-86
2021/08/31 07:14:13;;;;;;;48.57;36.33;;;;;;;;;;5034855;28;20185;-83
2021/08/31 07:16:44;;;;;;;48.30;36.30;;;;;;;;;;5017707;28;20216;-83
2021/08/31 07:19:10;;;;;;;47.17;34.20;;;;;;;;;;5017494;28;20181;-83
2021/08/31 07:21:36;;;;;;;48.03;35.73;;;;;;;;;;5018301;28;20208;-83
2021/08/31 07:24:02;;;;;;;44.90;35.73;;;;;;;;;;5035037;28;20232;-84
2021/08/31 07:26:28;;;;;;;44.80;34.50;;;;;;;;;;5035185;28;20268;-83
2021/08/31 07:28:54;;;;;;;44.43;32.37;;;;;;;;;;5030221;28;20644;-83
2021/08/31 07:31:20;;;;;;;43.90;34.20;;;;;;;;;;5018553;28;21059;-83
2021/08/31 07:33:48;;;;;;;43.17;32.73;;;;;;;;;;5016877;28;20483;-83
2021/08/31 07:36:14;;;;;;;40.57;31.57;;;;;;;;;;5016245;28;20249;-84
2021/08/31 07:38:40;;;;;;;37.83;30.50;;;;;;;;;;5035202;28;20624;-84
2021/08/31 07:41:06;;;;;;;43.50;33.70;;;;;;;;;;5018010;28;20189;-84
2021/08/31 07:43:32;;;;;;;41.37;30.83;;;;;;;;;;5015650;28;20210;-84
2021/08/31 07:45:58;;;;;;;42.07;32.60;;;;;;;;;;5027880;28;20174;-84
2021/08/31 07:48:24;;;;;;;39.67;31.13;;;;;;;;;;5016822;28;20171;-84
2021/08/31 07:50:50;;;;;;;39.40;30.73;;;;;;;;;;5033842;28;20174;-84
2021/08/31 07:53:16;;;;;;;39.77;31.73;;;;;;;;;;5016697;28;20197;-84
2021/08/31 07:55:42;;;;;;;38.47;30.50;;;;;;;;;;5016496;28;20289;-84
2021/08/31 07:58:08;;;;;;;38.70;30.70;;;;;;;;;;5016063;28;20197;-84
2021/08/31 08:00:37;;;;;;;37.67;29.40;;;;;;;;;;5016653;28;20228;-84
2021/08/31 08:03:03;;;;;;;35.97;29.30;;;;;;;;;;5016343;28;20197;-84
2021/08/31 08:05:29;;;;;;;37.37;29.87;;;;;;;;;;5032958;28;20186;-84
2021/08/31 08:07:55;;;;;;;37.60;31.50;;;;;;;;;;5025133;28;20295;-84
2021/08/31 08:10:21;;;;;;;35.27;29.20;;;;;;;;;;5016698;28;20209;-83
2021/08/31 08:12:47;;;;;;;40.67;31.67;;;;;;;;;;5012015;28;20272;-83
2021/08/31 08:15:14;;;;;;;37.73;29.87;;;;;;;;;;5009714;28;20300;-84
2021/08/31 08:17:41;;;;;;;36.40;28.80;;;;;;;;;;5034785;28;20183;-84
2021/08/31 08:20:08;;;;;;;35.87;28.83;;;;;;;;;;5016650;28;20189;-84
2021/08/31 08:22:35;;;;;;;35.07;29.17;;;;;;;;;;5016736;28;20210;-84
2021/08/31 08:25:01;;;;;;;34.80;28.83;;;;;;;;;;5017152;28;20183;-84
2021/08/31 08:27:27;;;;;;;36.33;29.07;;;;;;;;;;5016403;28;20182;-84
2021/08/31 08:29:53;;;;;;;34.13;29.03;;;;;;;;;;5016001;28;20166;-84
2021/08/31 08:32:19;;;;;;;37.67;29.17;;;;;;;;;;5016577;28;20240;-84
2021/08/31 08:34:45;;;;;;;34.80;29.03;;;;;;;;;;5017701;28;20205;-84
2021/08/31 08:37:12;;;;;;;31.97;27.30;;;;;;;;;;5016328;28;20182;-84
2021/08/31 08:39:38;;;;;;;32.37;27.20;;;;;;;;;;5016935;28;20195;-84
2021/08/31 08:42:05;;;;;;;31.43;25.80;;;;;;;;;;5021839;28;20251;-83
2021/08/31 08:44:31;;;;;;;28.50;24.97;;;;;;;;;;5015728;28;20186;-84
2021/08/31 08:46:57;;;;;;;25.97;23.17;;;;;;;;;;5031718;28;20210;-83
2021/08/31 08:49:23;;;;;;;28.37;24.07;;;;;;;;;;5023461;28;20946;-84
2021/08/31 08:51:53;;;;;;;27.10;23.17;;;;;;;;;;5016564;28;20228;-84
2021/08/31 08:54:19;;;;;;;29.47;23.60;;;;;;;;;;5016552;28;20236;-84
2021/08/31 08:56:45;;;;;;;24.73;21.87;;;;;;;;;;5016246;28;20248;-84
2021/08/31 08:59:12;;;;;;;23.57;20.80;;;;;;;;;;5012364;28;20232;-84
2021/08/31 09:01:43;;;;;;;22.60;20.17;;;;;;;;;;5031349;28;20251;-84
2021/08/31 09:04:10;;;;;;;25.43;21.50;;;;;;;;;;5015206;28;20549;-84
2021/08/31 09:06:36;;;;;;;22.07;19.10;;;;;;;;;;5014587;28;20636;-84
2021/08/31 09:09:03;;;;;;;22.77;19.53;;;;;;;;;;5015545;28;20178;-84
2021/08/31 09:11:34;;;;;;;20.67;18.07;;;;;;;;;;5033278;28;20180;-84
2021/08/31 09:14:18;;;;;;;19.77;17.13;;;;;;;;;;5014899;28;20188;-84
2021/08/31 09:16:48;;;;;;;19.73;16.80;;;;;;;;;;5009419;28;20174;-83
2021/08/31 09:19:15;;;;;;;22.00;16.87;;;;;;;;;;5014963;28;20196;-84
2021/08/31 09:21:41;;;;;;;20.00;15.97;;;;;;;;;;5016056;28;20210;-84
2021/08/31 09:24:07;;;;;;;18.10;15.57;;;;;;;;;;5015392;28;20542;-84
2021/08/31 09:26:38;;;;;;;19.27;15.57;;;;;;;;;;5032323;28;20345;-84
2021/08/31 09:29:11;;;;;;;19.87;16.20;;;;;;;;;;5034051;28;20644;-84
2021/08/31 09:31:44;;;;;;;18.63;15.07;;;;;;;;;;5033334;28;20541;-84
2021/08/31 09:34:30;;;;;;;17.40;15.70;;;;;;;;;;5033528;28;20178;-84
2021/08/31 09:36:56;;;;;;;15.77;13.83;;;;;;;;;;5034232;28;20185;-84
2021/08/31 09:39:29;;;;;;;18.40;16.40;;;;;;;;;;5033235;28;20212;-85
2021/08/31 09:42:07;;;;;;;18.13;16.23;;;;;;;;;;5018322;28;20264;-84
2021/08/31 09:44:33;;;;;;;16.63;14.67;;;;;;;;;;5017029;28;20212;-84
2021/08/31 09:47:04;;;;;;;15.63;14.03;;;;;;;;;;5014666;28;20181;-84
2021/08/31 09:49:31;;;;;;;15.03;13.57;;;;;;;;;;5015264;28;20184;-84
2021/08/31 09:52:02;;;;;;;16.73;14.10;;;;;;;;;;5014924;28;20492;-84
2021/08/31 09:54:28;;;;;;;16.97;14.63;;;;;;;;;;5014962;28;20180;-84
2021/08/31 09:56:54;;;;;;;17.53;14.57;;;;;;;;;;5031048;28;20181;-84
2021/08/31 09:59:20;;;;;;;15.63;13.83;;;;;;;;;;5014111;28;20217;-84
2021/08/31 10:01:46;;;;;;;15.93;14.23;;;;;;;;;;5013628;28;20211;-87
2021/08/31 10:04:12;;;;;;;16.07;13.57;;;;;;;;;;5032230;28;20178;-85
2021/08/31 10:06:39;;;;;;;15.40;13.63;;;;;;;;;;5030358;28;20206;-86
2021/08/31 10:09:05;;;;;;;15.80;13.33;;;;;;;;;;5014159;28;20187;-85
2021/08/31 10:11:32;;;;;;;14.73;13.07;;;;;;;;;;5031129;28;20188;-86
2021/08/31 10:13:59;;;;;;;14.53;13.03;;;;;;;;;;5014145;28;20178;-86
2021/08/31 10:16:25;;;;;;;15.67;11.83;;;;;;;;;;5013669;28;20205;-85
2021/08/31 10:18:51;;;;;;;13.97;12.00;;;;;;;;;;5032347;28;20263;-86
2021/08/31 10:21:17;;;;;;;14.77;11.87;;;;;;;;;;5013535;28;20577;-86
2021/08/31 10:23:45;;;;;;;13.13;10.40;;;;;;;;;;5014023;28;20189;-86
2021/08/31 10:26:23;;;;;;;12.23;10.93;;;;;;;;;;5013850;28;20324;-86
2021/08/31 10:29:09;;;;;;;12.73;9.97;;;;;;;;;;5020074;28;20173;-86
2021/08/31 10:31:35;;;;;;;12.93;11.17;;;;;;;;;;5019459;28;20216;-86
2021/08/31 10:34:01;;;;;;;11.47;10.37;;;;;;;;;;5020706;28;20184;-86
2021/08/31 10:36:37;;;;;;;12.60;11.07;;;;;;;;;;5019853;28;20251;-86
2021/08/31 10:39:07;;;;;;;13.20;10.30;;;;;;;;;;5038032;28;20180;-86
2021/08/31 10:41:42;;;;;;;13.80;10.70;;;;;;;;;;5016887;28;20186;-85
2021/08/31 10:44:08;;;;;;;12.33;10.80;;;;;;;;;;5001497;28;20185;-86
2021/08/31 10:46:53;;;;;;;12.57;10.27;;;;;;;;;;5019860;28;20178;-86
2021/08/31 10:49:19;;;;;;;11.23;10.07;;;;;;;;;;5002562;28;20174;-86
2021/08/31 10:52:04;;;;;;;10.77;9.13;;;;;;;;;;5019332;28;20365;-86
2021/08/31 10:54:44;;;;;;;10.23;8.40;;;;;;;;;;5037222;28;20177;-86
2021/08/31 10:57:29;;;;;;;12.40;9.50;;;;;;;;;;5032782;28;20527;-87
2021/08/31 10:59:55;;;;;;;10.30;9.20;;;;;;;;;;5019443;28;20272;-87
2021/08/31 11:02:40;;;;;;;11.67;8.60;;;;;;;;;;5019072;28;20213;-86
2021/08/31 11:05:21;;;;;;;10.47;8.77;;;;;;;;;;5024911;28;20711;-86
2021/08/31 11:08:02;;;;;;;10.00;8.73;;;;;;;;;;5031608;28;20206;-86
2021/08/31 11:10:36;;;;;;;8.10;7.30;;;;;;;;;;5019338;28;20209;-86
2021/08/31 11:13:09;;;;;;;9.67;7.97;;;;;;;;;;5019332;28;20192;-86
2021/08/31 11:15:36;;;;;;;9.67;8.47;;;;;;;;;;5038208;28;20548;-86
2021/08/31 11:18:07;;;;;;;10.57;7.63;;;;;;;;;;5020036;28;20181;-86
2021/08/31 11:20:37;;;;;;;9.80;8.27;;;;;;;;;;5019289;28;20655;-86
2021/08/31 11:23:03;;;;;;;8.30;7.40;;;;;;;;;;5019295;28;20205;-86
2021/08/31 11:25:49;;;;;;;10.57;7.60;;;;;;;;;;5019460;28;20173;-84
2021/08/31 11:28:15;;;;;;;9.03;8.00;;;;;;;;;;5020313;28;20197;-84
2021/08/31 11:30:55;;;;;;;9.03;7.87;;;;;;;;;;5029932;28;20197;-85
2021/08/31 11:33:25;;;;;;;8.20;7.03;;;;;;;;;;5033109;28;20194;-85
2021/08/31 11:35:56;;;;;;;11.60;7.17;;;;;;;;;;5022464;28;20185;-85
2021/08/31 11:38:37;;;;;;;11.93;7.30;;;;;;;;;;5033135;28;20190;-85
2021/08/31 11:41:20;;;;;;;9.87;7.30;;;;;;;;;;5026541;28;20204;-84
2021/08/31 11:43:51;;;;;;;15.53;9.07;;;;;;;;;;5016630;28;20282;-83
2021/08/31 11:46:21;;;;;;;8.03;7.10;;;;;;;;;;5016749;28;20551;-85
2021/08/31 11:48:47;;;;;;;8.50;6.77;;;;;;;;;;5021996;28;20212;-84
2021/08/31 11:51:18;;;;;;;9.43;7.40;;;;;;;;;;5030632;28;20186;-84
2021/08/31 11:53:46;;;;;;;7.33;6.63;;;;;;;;;;5034765;28;20269;-83
2021/08/31 11:56:13;;;;;;;8.33;7.10;;;;;;;;;;5035511;28;20534;-83
2021/08/31 11:58:43;;;;;;;8.03;7.23;;;;;;;;;;5019299;28;20197;-84
2021/08/31 12:01:09;;;;;;;8.98;7.85;;;;;;;;;;5016508;28;20706;-84
2021/08/31 12:03:36;;;;;;;9.43;7.50;;;;;;;;;;5035777;28;20248;-84
2021/08/31 12:06:06;;;;;;;8.47;7.57;;;;;;;;;;5029431;28;20186;-84
2021/08/31 12:08:35;;;;;;;8.70;7.67;;;;;;;;;;5033881;28;20787;-84
2021/08/31 12:11:02;;;;;;;9.43;6.47;;;;;;;;;;5034361;28;20193;-84
2021/08/31 12:13:28;;;;;;;7.23;6.50;;;;;;;;;;5016097;28;20174;-84
2021/08/31 12:15:56;;;;;;;7.17;6.37;;;;;;;;;;5033268;28;20265;-83
2021/08/31 12:18:23;;;;;;;10.03;6.70;;;;;;;;;;5008934;28;20562;-84
2021/08/31 12:20:49;;;;;;;8.63;7.23;;;;;;;;;;5014988;28;20607;-84
2021/08/31 12:23:15;;;;;;;8.93;8.03;;;;;;;;;;5015423;28;20202;-84
2021/08/31 12:25:43;;;;;;;8.87;7.20;;;;;;;;;;5017007;28;20641;-83
2021/08/31 12:28:10;;;;;;;10.20;7.80;;;;;;;;;;5014942;28;20193;-83
2021/08/31 12:30:43;;;;;;;8.30;7.30;;;;;;;;;;5014729;28;20315;-83
2021/08/31 12:33:10;;;;;;;8.40;7.57;;;;;;;;;;5015525;28;20192;-83
2021/08/31 12:35:42;;;;;;;9.80;6.90;;;;;;;;;;5015303;28;20325;-83
2021/08/31 12:38:17;;;;;;;8.93;6.77;;;;;;;;;;5014353;28;20508;-83
2021/08/31 12:40:53;;;;;;;7.40;6.20;;;;;;;;;;5014583;28;20234;-83
2021/08/31 12:43:19;;;;;;;8.47;5.87;;;;;;;;;;5014566;28;20196;-82
2021/08/31 12:45:49;;;;;;;7.07;5.93;;;;;;;;;;5032535;28;20203;-83
2021/08/31 12:48:16;;;;;;;5.63;5.13;;;;;;;;;;5012854;28;20209;-83
2021/08/31 12:50:52;;;;;;;6.70;5.80;;;;;;;;;;5007862;28;20262;-83
2021/08/31 12:53:19;;;;;;;9.60;5.80;;;;;;;;;;5032639;28;20178;-83
2021/08/31 12:56:00;;;;;;;8.07;6.43;;;;;;;;;;5014872;28;20495;-82
2021/08/31 12:58:26;;;;;;;8.93;5.30;;;;;;;;;;5015152;28;20187;-82
2021/08/31 13:01:12;;;;;;;7.00;5.20;;;;;;;;;;5014585;28;20361;-83
2021/08/31 13:03:38;;;;;;;6.10;5.50;;;;;;;;;;5007898;28;20202;-83
2021/08/31 13:06:05;;;;;;;6.43;5.77;;;;;;;;;;5014139;28;20224;-82
2021/08/31 13:08:32;;;;;;;6.50;5.83;;;;;;;;;;5014982;28;20587;-83
2021/08/31 13:10:58;;;;;;;5.70;5.10;;;;;;;;;;5014469;28;20186;-83
2021/08/31 13:13:28;;;;;;;7.23;4.83;;;;;;;;;;5015012;28;20724;-82
2021/08/31 13:15:54;;;;;;;6.83;5.50;;;;;;;;;;5024644;28;20181;-83
2021/08/31 13:18:20;;;;;;;5.77;5.27;;;;;;;;;;5014439;28;20188;-82
2021/08/31 13:20:46;;;;;;;6.43;5.83;;;;;;;;;;5031550;28;20182;-83
2021/08/31 13:23:12;;;;;;;5.93;4.53;;;;;;;;;;5031022;28;20284;-82
2021/08/31 13:25:38;;;;;;;5.53;4.93;;;;;;;;;;5013680;28;20266;-82
2021/08/31 13:28:07;;;;;;;5.40;4.57;;;;;;;;;;5010991;28;20405;-82
2021/08/31 13:30:33;;;;;;;4.80;4.30;;;;;;;;;;5022956;28;20175;-82
2021/08/31 13:32:59;;;;;;;5.43;4.33;;;;;;;;;;5015681;28;21767;-81
2021/08/31 13:35:25;;;;;;;5.57;4.97;;;;;;;;;;5013835;28;20283;-82
2021/08/31 13:37:51;;;;;;;5.07;4.60;;;;;;;;;;5014933;28;20183;-81
2021/08/31 13:40:18;;;;;;;5.17;4.23;;;;;;;;;;5013799;28;20187;-81
2021/08/31 13:42:44;;;;;;;4.90;4.30;;;;;;;;;;5014086;28;20545;-81
2021/08/31 13:45:10;;;;;;;4.73;4.33;;;;;;;;;;5031509;28;20211;-80
2021/08/31 13:47:36;;;;;;;5.47;4.03;;;;;;;;;;5013228;28;20180;-80
2021/08/31 13:50:03;;;;;;;5.90;5.27;;;;;;;;;;5007563;28;20232;-80
2021/08/31 13:52:29;;;;;;;5.93;4.73;;;;;;;;;;5013744;28;20261;-80
2021/08/31 13:54:55;;;;;;;6.40;4.83;;;;;;;;;;5012739;28;20537;-82
2021/08/31 13:57:22;;;;;;;5.30;4.73;;;;;;;;;;5013954;28;20207;-79
2021/08/31 13:59:48;;;;;;;7.27;6.27;;;;;;;;;;5007218;28;20220;-78
2021/08/31 14:02:14;;;;;;;7.73;6.13;;;;;;;;;;5012945;28;20207;-79
2021/08/31 14:04:40;;;;;;;6.17;5.33;;;;;;;;;;5013493;28;20186;-79
2021/08/31 14:07:06;;;;;;;5.30;4.80;;;;;;;;;;5031868;28;20193;-79
2021/08/31 14:09:32;;;;;;;6.30;4.43;;;;;;;;;;5031839;28;20298;-79
2021/08/31 14:11:58;;;;;;;5.47;4.77;;;;;;;;;;5014070;28;20184;-78
2021/08/31 14:14:24;;;;;;;5.10;4.60;;;;;;;;;;5001996;28;20189;-79
2021/08/31 14:16:50;;;;;;;5.83;4.73;;;;;;;;;;5001681;28;20193;-79
2021/08/31 14:19:16;;;;;;;5.67;5.07;;;;;;;;;;5006824;28;20194;-80
2021/08/31 14:21:44;;;;;;;5.87;4.70;;;;;;;;;;5034204;28;20172;-81
2021/08/31 14:24:13;;;;;;;6.07;5.20;;;;;;;;;;5043864;28;20540;-82
2021/08/31 14:26:39;;;;;;;7.50;5.00;;;;;;;;;;5035739;28;20649;-81
2021/08/31 14:29:05;;;;;;;5.67;5.17;;;;;;;;;;5025799;28;20246;-83
2021/08/31 14:31:32;;;;;;;7.67;5.83;;;;;;;;;;5032301;28;20204;-83
2021/08/31 14:34:05;;;;;;;5.43;4.93;;;;;;;;;;5017433;28;20386;-84